Wetter

ACHTUNG: Die hier angeboten Wetter-Informationen sind nicht geeicht und dürfen für Flugvorbereitungen nicht verwendet werden
ACG Flugwetter
METAR/TAF LOXZ

LOXZ 301250Z 25017KT 9999 -SHRA FEW030 SCT060 BKN070 13/10 Q1008 NOSIG

TAF LOXZ 181415Z 1812/1824 CNL

METAR/TAF LOXA

LOXA 100820Z VRB02KT 50KM FEW120AC SCT300CI 17/13 Q1021 NOSIG RMK SCT

TAF TAF LOXA 090515Z 0906/0918 VRB03KT 0500 FG SCT060 BECMG 0906/0908 9999 NSW FEW060 BECMG 0909/0911 04007KT TEMPO 0910/0915 SCT060 BKN100

METAR/TAF LOWG 

LOWG 301250Z AUTO 22010KT 180V270 8000 +TSRA FEW024 FEW040CB SCT046 BKN060 17/13 Q1007 TEMPO 28015G25KT 4000 TSRA

TAF AMD LOWG 301254Z 3012/3112 VRB05KT 9999 SCT040 TX23/3012Z TN13/3102Z TEMPO 3012/3015 30015G25KT 2500 +TSRA BKN014 FEW050CB PROB30 TEMPO 3023/3105 1200 BCFG BECMG 3104/3106 -RA TEMPO 3110/3112 SHRA BKN014

(Information der letzten Stunde)

(Information der letzten Stunde)

Dichtehöhe (in LOGT)
Temperatur / Windchill der letzten 10 Tage

Ext. Links zu Wetterdiensten

ALDIS

Öster.- Unwetterzentrale